sensor_id;sensor_type;location;lat;lon;timestamp;P1;durP1;ratioP1;P2;durP2;ratioP2
20535;SDS011;10426;49.420;8.390;2022-09-09T00:01:13;2.13;;;1.80;;
20535;SDS011;10426;49.420;8.390;2022-09-09T00:03:43;3.63;;;2.10;;
20535;SDS011;10426;49.420;8.390;2022-09-09T00:06:13;2.50;;;2.40;;
20535;SDS011;10426;49.420;8.390;2022-09-09T00:08:45;3.47;;;2.88;;
20535;SDS011;10426;49.420;8.390;2022-09-09T00:11:13;4.03;;;3.10;;
20535;SDS011;10426;49.420;8.390;2022-09-09T00:13:44;2.17;;;1.98;;
20535;SDS011;10426;49.420;8.390;2022-09-09T00:16:15;2.60;;;2.00;;
20535;SDS011;10426;49.420;8.390;2022-09-09T00:18:47;2.65;;;1.80;;
20535;SDS011;10426;49.420;8.390;2022-09-09T00:21:17;2.88;;;1.70;;
20535;SDS011;10426;49.420;8.390;2022-09-09T00:23:44;1.67;;;1.58;;
20535;SDS011;10426;49.420;8.390;2022-09-09T00:26:15;2.40;;;1.50;;
20535;SDS011;10426;49.420;8.390;2022-09-09T00:28:45;1.95;;;1.35;;
20535;SDS011;10426;49.420;8.390;2022-09-09T00:31:13;1.93;;;1.30;;
20535;SDS011;10426;49.420;8.390;2022-09-09T00:33:41;1.03;;;1.00;;
20535;SDS011;10426;49.420;8.390;2022-09-09T00:36:10;1.20;;;1.10;;
20535;SDS011;10426;49.420;8.390;2022-09-09T00:38:40;1.88;;;1.00;;
20535;SDS011;10426;49.420;8.390;2022-09-09T00:41:09;2.97;;;1.20;;
20535;SDS011;10426;49.420;8.390;2022-09-09T00:43:38;2.50;;;1.10;;
20535;SDS011;10426;49.420;8.390;2022-09-09T00:46:09;1.60;;;1.13;;
20535;SDS011;10426;49.420;8.390;2022-09-09T00:48:40;1.83;;;1.20;;
20535;SDS011;10426;49.420;8.390;2022-09-09T00:51:12;1.42;;;1.13;;
20535;SDS011;10426;49.420;8.390;2022-09-09T00:53:51;1.13;;;0.90;;
20535;SDS011;10426;49.420;8.390;2022-09-09T00:56:24;0.90;;;0.90;;
20535;SDS011;10426;49.420;8.390;2022-09-09T00:58:55;3.22;;;1.10;;
20535;SDS011;10426;49.420;8.390;2022-09-09T01:01:25;0.80;;;0.80;;
20535;SDS011;10426;49.420;8.390;2022-09-09T01:03:52;2.13;;;1.00;;
20535;SDS011;10426;49.420;8.390;2022-09-09T01:06:21;1.38;;;0.90;;
20535;SDS011;10426;49.420;8.390;2022-09-09T01:08:57;0.98;;;0.88;;
20535;SDS011;10426;49.420;8.390;2022-09-09T01:11:28;2.58;;;1.00;;
20535;SDS011;10426;49.420;8.390;2022-09-09T01:14:00;1.33;;;0.90;;
20535;SDS011;10426;49.420;8.390;2022-09-09T01:16:28;3.67;;;0.73;;
20535;SDS011;10426;49.420;8.390;2022-09-09T01:18:55;2.23;;;1.00;;
20535;SDS011;10426;49.420;8.390;2022-09-09T01:21:25;1.58;;;1.00;;
20535;SDS011;10426;49.420;8.390;2022-09-09T01:24:09;2.00;;;0.95;;
20535;SDS011;10426;49.420;8.390;2022-09-09T01:26:42;0.90;;;0.90;;
20535;SDS011;10426;49.420;8.390;2022-09-09T01:29:10;1.55;;;0.88;;
20535;SDS011;10426;49.420;8.390;2022-09-09T01:31:38;1.60;;;1.00;;
20535;SDS011;10426;49.420;8.390;2022-09-09T01:34:08;2.20;;;0.90;;
20535;SDS011;10426;49.420;8.390;2022-09-09T01:36:37;1.10;;;0.87;;
20535;SDS011;10426;49.420;8.390;2022-09-09T01:39:05;2.10;;;1.15;;
20535;SDS011;10426;49.420;8.390;2022-09-09T01:41:32;4.85;;;1.00;;
20535;SDS011;10426;49.420;8.390;2022-09-09T01:44:00;3.20;;;1.40;;
20535;SDS011;10426;49.420;8.390;2022-09-09T01:46:27;4.65;;;2.20;;
20535;SDS011;10426;49.420;8.390;2022-09-09T01:48:54;4.45;;;2.17;;
20535;SDS011;10426;49.420;8.390;2022-09-09T01:51:21;3.60;;;1.67;;
20535;SDS011;10426;49.420;8.390;2022-09-09T01:53:48;3.58;;;1.50;;
20535;SDS011;10426;49.420;8.390;2022-09-09T01:56:18;2.83;;;1.02;;
20535;SDS011;10426;49.420;8.390;2022-09-09T01:58:51;2.55;;;1.20;;
20535;SDS011;10426;49.420;8.390;2022-09-09T02:01:24;1.20;;;1.00;;
20535;SDS011;10426;49.420;8.390;2022-09-09T02:03:53;1.50;;;1.00;;
20535;SDS011;10426;49.420;8.390;2022-09-09T02:06:25;0.70;;;0.70;;
20535;SDS011;10426;49.420;8.390;2022-09-09T02:08:53;2.07;;;0.73;;
20535;SDS011;10426;49.420;8.390;2022-09-09T02:11:22;1.00;;;0.90;;
20535;SDS011;10426;49.420;8.390;2022-09-09T02:13:50;2.30;;;1.20;;
20535;SDS011;10426;49.420;8.390;2022-09-09T02:16:18;1.70;;;0.90;;
20535;SDS011;10426;49.420;8.390;2022-09-09T02:18:50;1.50;;;1.00;;
20535;SDS011;10426;49.420;8.390;2022-09-09T02:21:17;2.40;;;1.10;;
20535;SDS011;10426;49.420;8.390;2022-09-09T02:23:44;1.88;;;1.27;;
20535;SDS011;10426;49.420;8.390;2022-09-09T02:26:13;2.28;;;1.10;;
20535;SDS011;10426;49.420;8.390;2022-09-09T02:28:45;1.58;;;1.15;;
20535;SDS011;10426;49.420;8.390;2022-09-09T02:31:12;1.33;;;1.13;;
20535;SDS011;10426;49.420;8.390;2022-09-09T02:33:42;2.85;;;1.17;;
20535;SDS011;10426;49.420;8.390;2022-09-09T02:36:10;2.40;;;0.80;;
20535;SDS011;10426;49.420;8.390;2022-09-09T02:38:39;1.40;;;1.20;;
20535;SDS011;10426;49.420;8.390;2022-09-09T02:41:07;2.55;;;1.00;;
20535;SDS011;10426;49.420;8.390;2022-09-09T02:43:34;1.60;;;0.88;;
20535;SDS011;10426;49.420;8.390;2022-09-09T02:46:03;1.33;;;0.93;;
20535;SDS011;10426;49.420;8.390;2022-09-09T02:48:33;2.33;;;1.00;;
20535;SDS011;10426;49.420;8.390;2022-09-09T02:51:01;1.15;;;0.90;;
20535;SDS011;10426;49.420;8.390;2022-09-09T02:53:36;0.93;;;0.90;;
20535;SDS011;10426;49.420;8.390;2022-09-09T02:56:05;1.15;;;0.90;;
20535;SDS011;10426;49.420;8.390;2022-09-09T02:58:35;1.83;;;0.88;;
20535;SDS011;10426;49.420;8.390;2022-09-09T03:01:04;2.03;;;0.90;;
20535;SDS011;10426;49.420;8.390;2022-09-09T03:03:31;3.00;;;0.95;;
20535;SDS011;10426;49.420;8.390;2022-09-09T03:05:58;1.00;;;0.70;;
20535;SDS011;10426;49.420;8.390;2022-09-09T03:08:25;2.00;;;0.90;;
20535;SDS011;10426;49.420;8.390;2022-09-09T03:10:54;2.70;;;0.90;;
20535;SDS011;10426;49.420;8.390;2022-09-09T03:13:21;1.50;;;0.90;;
20535;SDS011;10426;49.420;8.390;2022-09-09T03:15:48;1.55;;;0.95;;
20535;SDS011;10426;49.420;8.390;2022-09-09T03:18:15;0.95;;;0.82;;
20535;SDS011;10426;49.420;8.390;2022-09-09T03:20:42;1.40;;;0.80;;
20535;SDS011;10426;49.420;8.390;2022-09-09T03:23:09;1.83;;;0.95;;
20535;SDS011;10426;49.420;8.390;2022-09-09T03:25:35;1.35;;;0.70;;
20535;SDS011;10426;49.420;8.390;2022-09-09T03:28:04;1.50;;;0.98;;
20535;SDS011;10426;49.420;8.390;2022-09-09T03:30:30;2.95;;;1.10;;
20535;SDS011;10426;49.420;8.390;2022-09-09T03:32:57;2.63;;;0.82;;
20535;SDS011;10426;49.420;8.390;2022-09-09T03:35:24;1.67;;;0.80;;
20535;SDS011;10426;49.420;8.390;2022-09-09T03:37:50;0.95;;;0.80;;
20535;SDS011;10426;49.420;8.390;2022-09-09T03:40:17;1.60;;;0.75;;
20535;SDS011;10426;49.420;8.390;2022-09-09T03:42:44;2.25;;;0.82;;
20535;SDS011;10426;49.420;8.390;2022-09-09T03:45:12;1.20;;;0.90;;
20535;SDS011;10426;49.420;8.390;2022-09-09T03:47:39;0.80;;;0.80;;
20535;SDS011;10426;49.420;8.390;2022-09-09T03:50:06;2.08;;;1.02;;
20535;SDS011;10426;49.420;8.390;2022-09-09T03:52:35;1.00;;;0.90;;
20535;SDS011;10426;49.420;8.390;2022-09-09T03:55:01;2.78;;;0.90;;
20535;SDS011;10426;49.420;8.390;2022-09-09T03:57:28;2.35;;;0.77;;
20535;SDS011;10426;49.420;8.390;2022-09-09T03:59:55;1.45;;;0.93;;
20535;SDS011;10426;49.420;8.390;2022-09-09T04:02:23;1.73;;;0.80;;
20535;SDS011;10426;49.420;8.390;2022-09-09T04:04:50;0.93;;;0.60;;
20535;SDS011;10426;49.420;8.390;2022-09-09T04:07:17;2.20;;;0.65;;
20535;SDS011;10426;49.420;8.390;2022-09-09T04:09:43;1.70;;;0.53;;
20535;SDS011;10426;49.420;8.390;2022-09-09T04:12:10;3.20;;;0.57;;
20535;SDS011;10426;49.420;8.390;2022-09-09T04:14:38;1.35;;;0.90;;
20535;SDS011;10426;49.420;8.390;2022-09-09T04:17:05;0.70;;;0.70;;
20535;SDS011;10426;49.420;8.390;2022-09-09T04:19:33;2.58;;;0.80;;
20535;SDS011;10426;49.420;8.390;2022-09-09T04:22:00;3.35;;;1.00;;
20535;SDS011;10426;49.420;8.390;2022-09-09T04:24:27;1.30;;;0.60;;
20535;SDS011;10426;49.420;8.390;2022-09-09T04:26:54;3.47;;;0.73;;
20535;SDS011;10426;49.420;8.390;2022-09-09T04:29:21;0.80;;;0.52;;
20535;SDS011;10426;49.420;8.390;2022-09-09T04:31:47;0.68;;;0.60;;
20535;SDS011;10426;49.420;8.390;2022-09-09T04:34:14;0.37;;;0.37;;
20535;SDS011;10426;49.420;8.390;2022-09-09T04:36:42;1.27;;;0.70;;
20535;SDS011;10426;49.420;8.390;2022-09-09T04:39:09;0.65;;;0.60;;
20535;SDS011;10426;49.420;8.390;2022-09-09T04:41:35;1.10;;;0.55;;
20535;SDS011;10426;49.420;8.390;2022-09-09T04:44:03;1.17;;;0.68;;
20535;SDS011;10426;49.420;8.390;2022-09-09T04:46:29;0.70;;;0.70;;
20535;SDS011;10426;49.420;8.390;2022-09-09T04:48:56;0.63;;;0.35;;
20535;SDS011;10426;49.420;8.390;2022-09-09T04:51:23;0.80;;;0.60;;
20535;SDS011;10426;49.420;8.390;2022-09-09T04:53:51;1.02;;;0.60;;
20535;SDS011;10426;49.420;8.390;2022-09-09T04:56:19;0.45;;;0.45;;
20535;SDS011;10426;49.420;8.390;2022-09-09T04:58:46;0.90;;;0.50;;
20535;SDS011;10426;49.420;8.390;2022-09-09T05:01:13;2.42;;;0.65;;
20535;SDS011;10426;49.420;8.390;2022-09-09T05:03:40;2.30;;;0.60;;
20535;SDS011;10426;49.420;8.390;2022-09-09T05:06:08;0.60;;;0.52;;
20535;SDS011;10426;49.420;8.390;2022-09-09T05:08:35;1.27;;;0.77;;
20535;SDS011;10426;49.420;8.390;2022-09-09T05:11:03;2.63;;;1.15;;
20535;SDS011;10426;49.420;8.390;2022-09-09T05:13:30;1.45;;;0.90;;
20535;SDS011;10426;49.420;8.390;2022-09-09T05:15:57;0.80;;;0.70;;
20535;SDS011;10426;49.420;8.390;2022-09-09T05:18:24;1.13;;;0.70;;
20535;SDS011;10426;49.420;8.390;2022-09-09T05:20:51;0.70;;;0.55;;
20535;SDS011;10426;49.420;8.390;2022-09-09T05:23:17;1.35;;;0.55;;
20535;SDS011;10426;49.420;8.390;2022-09-09T05:25:54;1.45;;;0.68;;
20535;SDS011;10426;49.420;8.390;2022-09-09T05:28:23;0.77;;;0.52;;
20535;SDS011;10426;49.420;8.390;2022-09-09T05:31:00;3.00;;;0.60;;
20535;SDS011;10426;49.420;8.390;2022-09-09T05:33:29;1.00;;;0.50;;
20535;SDS011;10426;49.420;8.390;2022-09-09T05:35:56;2.78;;;0.88;;
20535;SDS011;10426;49.420;8.390;2022-09-09T05:38:23;1.90;;;0.73;;
20535;SDS011;10426;49.420;8.390;2022-09-09T05:40:50;3.50;;;0.80;;
20535;SDS011;10426;49.420;8.390;2022-09-09T05:43:17;0.50;;;0.50;;
20535;SDS011;10426;49.420;8.390;2022-09-09T05:45:46;0.60;;;0.60;;
20535;SDS011;10426;49.420;8.390;2022-09-09T05:48:13;1.60;;;0.73;;
20535;SDS011;10426;49.420;8.390;2022-09-09T05:50:40;1.30;;;0.70;;
20535;SDS011;10426;49.420;8.390;2022-09-09T05:53:08;3.15;;;0.70;;
20535;SDS011;10426;49.420;8.390;2022-09-09T05:55:35;0.98;;;0.90;;
20535;SDS011;10426;49.420;8.390;2022-09-09T05:58:01;1.35;;;0.85;;
20535;SDS011;10426;49.420;8.390;2022-09-09T06:00:28;2.80;;;0.80;;
20535;SDS011;10426;49.420;8.390;2022-09-09T06:02:56;1.02;;;0.63;;
20535;SDS011;10426;49.420;8.390;2022-09-09T06:05:23;1.77;;;0.90;;
20535;SDS011;10426;49.420;8.390;2022-09-09T06:07:52;2.22;;;0.75;;
20535;SDS011;10426;49.420;8.390;2022-09-09T06:10:19;0.73;;;0.63;;
20535;SDS011;10426;49.420;8.390;2022-09-09T06:12:46;1.15;;;0.70;;
20535;SDS011;10426;49.420;8.390;2022-09-09T06:15:12;0.97;;;0.70;;
20535;SDS011;10426;49.420;8.390;2022-09-09T06:17:39;1.02;;;0.70;;
20535;SDS011;10426;49.420;8.390;2022-09-09T06:20:08;1.00;;;0.60;;
20535;SDS011;10426;49.420;8.390;2022-09-09T06:22:35;0.90;;;0.60;;
20535;SDS011;10426;49.420;8.390;2022-09-09T06:25:02;1.75;;;0.65;;
20535;SDS011;10426;49.420;8.390;2022-09-09T06:27:29;0.70;;;0.63;;
20535;SDS011;10426;49.420;8.390;2022-09-09T06:29:56;1.73;;;1.00;;
20535;SDS011;10426;49.420;8.390;2022-09-09T06:32:22;1.40;;;1.27;;
20535;SDS011;10426;49.420;8.390;2022-09-09T06:34:49;1.20;;;0.82;;
20535;SDS011;10426;49.420;8.390;2022-09-09T06:37:17;2.83;;;1.20;;
20535;SDS011;10426;49.420;8.390;2022-09-09T06:39:44;4.38;;;1.25;;
20535;SDS011;10426;49.420;8.390;2022-09-09T06:42:10;3.15;;;0.90;;
20535;SDS011;10426;49.420;8.390;2022-09-09T06:44:37;0.90;;;0.60;;
20535;SDS011;10426;49.420;8.390;2022-09-09T06:47:04;1.10;;;0.65;;
20535;SDS011;10426;49.420;8.390;2022-09-09T06:49:30;1.70;;;0.80;;
20535;SDS011;10426;49.420;8.390;2022-09-09T06:51:57;0.73;;;0.73;;
20535;SDS011;10426;49.420;8.390;2022-09-09T06:54:25;1.45;;;0.60;;
20535;SDS011;10426;49.420;8.390;2022-09-09T06:56:52;0.80;;;0.68;;
20535;SDS011;10426;49.420;8.390;2022-09-09T06:59:19;1.30;;;0.60;;
20535;SDS011;10426;49.420;8.390;2022-09-09T07:01:45;1.30;;;0.70;;
20535;SDS011;10426;49.420;8.390;2022-09-09T07:04:13;2.50;;;0.90;;
20535;SDS011;10426;49.420;8.390;2022-09-09T07:06:40;2.80;;;0.60;;
20535;SDS011;10426;49.420;8.390;2022-09-09T07:09:09;5.03;;;0.63;;
20535;SDS011;10426;49.420;8.390;2022-09-09T07:11:38;2.08;;;0.80;;
20535;SDS011;10426;49.420;8.390;2022-09-09T07:14:06;1.92;;;0.82;;
20535;SDS011;10426;49.420;8.390;2022-09-09T07:16:33;1.83;;;0.73;;
20535;SDS011;10426;49.420;8.390;2022-09-09T07:19:02;1.17;;;0.70;;
20535;SDS011;10426;49.420;8.390;2022-09-09T07:21:29;1.30;;;0.80;;
20535;SDS011;10426;49.420;8.390;2022-09-09T07:23:57;1.73;;;0.88;;
20535;SDS011;10426;49.420;8.390;2022-09-09T07:26:24;1.20;;;0.70;;
20535;SDS011;10426;49.420;8.390;2022-09-09T07:28:53;0.85;;;0.60;;
20535;SDS011;10426;49.420;8.390;2022-09-09T07:31:21;2.67;;;0.90;;
20535;SDS011;10426;49.420;8.390;2022-09-09T07:33:50;1.00;;;0.90;;
20535;SDS011;10426;49.420;8.390;2022-09-09T07:36:17;2.92;;;1.00;;
20535;SDS011;10426;49.420;8.390;2022-09-09T07:38:47;1.98;;;0.80;;
20535;SDS011;10426;49.420;8.390;2022-09-09T07:41:15;2.47;;;0.82;;
20535;SDS011;10426;49.420;8.390;2022-09-09T07:43:43;2.20;;;0.63;;
20535;SDS011;10426;49.420;8.390;2022-09-09T07:46:12;1.55;;;0.75;;
20535;SDS011;10426;49.420;8.390;2022-09-09T07:48:43;1.95;;;0.75;;
20535;SDS011;10426;49.420;8.390;2022-09-09T07:51:11;2.08;;;0.90;;
20535;SDS011;10426;49.420;8.390;2022-09-09T07:53:38;2.55;;;0.82;;
20535;SDS011;10426;49.420;8.390;2022-09-09T07:56:06;1.75;;;0.90;;
20535;SDS011;10426;49.420;8.390;2022-09-09T07:58:34;1.38;;;0.60;;
20535;SDS011;10426;49.420;8.390;2022-09-09T08:01:05;1.35;;;0.90;;
20535;SDS011;10426;49.420;8.390;2022-09-09T08:03:33;1.60;;;0.70;;
20535;SDS011;10426;49.420;8.390;2022-09-09T08:06:00;2.13;;;0.90;;
20535;SDS011;10426;49.420;8.390;2022-09-09T08:08:27;1.30;;;0.77;;
20535;SDS011;10426;49.420;8.390;2022-09-09T08:11:00;3.40;;;1.00;;
20535;SDS011;10426;49.420;8.390;2022-09-09T08:13:27;3.35;;;1.10;;
20535;SDS011;10426;49.420;8.390;2022-09-09T08:15:54;1.77;;;0.70;;
20535;SDS011;10426;49.420;8.390;2022-09-09T08:18:21;1.20;;;0.82;;
20535;SDS011;10426;49.420;8.390;2022-09-09T08:20:50;1.63;;;0.75;;
20535;SDS011;10426;49.420;8.390;2022-09-09T08:23:17;1.88;;;0.90;;
20535;SDS011;10426;49.420;8.390;2022-09-09T08:25:43;1.83;;;0.95;;
20535;SDS011;10426;49.420;8.390;2022-09-09T08:28:11;1.35;;;0.80;;
20535;SDS011;10426;49.420;8.390;2022-09-09T08:30:37;1.80;;;0.90;;
20535;SDS011;10426;49.420;8.390;2022-09-09T08:33:04;1.70;;;0.80;;
20535;SDS011;10426;49.420;8.390;2022-09-09T08:35:31;1.38;;;0.90;;
20535;SDS011;10426;49.420;8.390;2022-09-09T08:37:59;1.67;;;0.85;;
20535;SDS011;10426;49.420;8.390;2022-09-09T08:40:26;2.50;;;0.60;;
20535;SDS011;10426;49.420;8.390;2022-09-09T08:42:55;2.10;;;0.90;;
20535;SDS011;10426;49.420;8.390;2022-09-09T08:45:31;1.88;;;0.75;;
20535;SDS011;10426;49.420;8.390;2022-09-09T08:48:03;2.27;;;1.07;;
20535;SDS011;10426;49.420;8.390;2022-09-09T08:50:35;2.45;;;1.08;;
20535;SDS011;10426;49.420;8.390;2022-09-09T08:53:05;1.73;;;0.90;;
20535;SDS011;10426;49.420;8.390;2022-09-09T08:55:37;1.23;;;0.85;;
20535;SDS011;10426;49.420;8.390;2022-09-09T08:58:09;1.67;;;0.98;;
20535;SDS011;10426;49.420;8.390;2022-09-09T09:00:40;1.80;;;0.80;;
20535;SDS011;10426;49.420;8.390;2022-09-09T09:03:11;1.33;;;0.80;;
20535;SDS011;10426;49.420;8.390;2022-09-09T09:05:42;1.47;;;0.90;;
20535;SDS011;10426;49.420;8.390;2022-09-09T09:08:15;2.45;;;0.93;;
20535;SDS011;10426;49.420;8.390;2022-09-09T09:10:46;1.30;;;0.80;;
20535;SDS011;10426;49.420;8.390;2022-09-09T09:13:14;1.93;;;0.80;;
20535;SDS011;10426;49.420;8.390;2022-09-09T09:15:42;1.60;;;0.90;;
20535;SDS011;10426;49.420;8.390;2022-09-09T09:18:12;1.33;;;0.80;;
20535;SDS011;10426;49.420;8.390;2022-09-09T09:20:42;2.05;;;0.80;;
20535;SDS011;10426;49.420;8.390;2022-09-09T09:23:15;1.83;;;0.80;;
20535;SDS011;10426;49.420;8.390;2022-09-09T09:25:44;0.82;;;0.80;;
20535;SDS011;10426;49.420;8.390;2022-09-09T09:28:12;4.40;;;1.00;;
20535;SDS011;10426;49.420;8.390;2022-09-09T09:30:44;1.92;;;1.10;;
20535;SDS011;10426;49.420;8.390;2022-09-09T09:33:14;1.88;;;0.90;;
20535;SDS011;10426;49.420;8.390;2022-09-09T09:35:42;2.30;;;1.02;;
20535;SDS011;10426;49.420;8.390;2022-09-09T09:38:13;1.92;;;1.00;;
20535;SDS011;10426;49.420;8.390;2022-09-09T09:40:47;2.10;;;1.10;;
20535;SDS011;10426;49.420;8.390;2022-09-09T09:43:18;1.98;;;0.90;;
20535;SDS011;10426;49.420;8.390;2022-09-09T09:45:45;6.07;;;1.50;;
20535;SDS011;10426;49.420;8.390;2022-09-09T09:48:13;1.73;;;1.07;;
20535;SDS011;10426;49.420;8.390;2022-09-09T09:50:46;1.77;;;0.60;;
20535;SDS011;10426;49.420;8.390;2022-09-09T09:53:18;1.88;;;0.80;;
20535;SDS011;10426;49.420;8.390;2022-09-09T09:55:53;1.52;;;0.73;;
20535;SDS011;10426;49.420;8.390;2022-09-09T09:58:20;2.10;;;0.70;;
20535;SDS011;10426;49.420;8.390;2022-09-09T10:00:47;1.50;;;0.70;;
20535;SDS011;10426;49.420;8.390;2022-09-09T10:03:21;1.88;;;0.75;;
20535;SDS011;10426;49.420;8.390;2022-09-09T10:05:48;1.27;;;0.70;;
20535;SDS011;10426;49.420;8.390;2022-09-09T10:08:15;2.28;;;0.57;;
20535;SDS011;10426;49.420;8.390;2022-09-09T10:10:48;1.37;;;0.70;;
20535;SDS011;10426;49.420;8.390;2022-09-09T10:13:18;3.13;;;0.77;;
20535;SDS011;10426;49.420;8.390;2022-09-09T10:15:48;2.08;;;0.90;;
20535;SDS011;10426;49.420;8.390;2022-09-09T10:18:29;1.98;;;1.00;;
20535;SDS011;10426;49.420;8.390;2022-09-09T10:21:03;3.05;;;1.55;;
20535;SDS011;10426;49.420;8.390;2022-09-09T10:23:37;2.28;;;1.40;;
20535;SDS011;10426;49.420;8.390;2022-09-09T10:26:12;3.67;;;1.60;;
20535;SDS011;10426;49.420;8.390;2022-09-09T10:28:49;4.68;;;1.70;;
20535;SDS011;10426;49.420;8.390;2022-09-09T10:31:22;4.75;;;1.23;;
20535;SDS011;10426;49.420;8.390;2022-09-09T10:33:51;2.45;;;1.10;;
20535;SDS011;10426;49.420;8.390;2022-09-09T10:36:23;1.88;;;1.10;;
20535;SDS011;10426;49.420;8.390;2022-09-09T10:38:52;2.73;;;1.00;;
20535;SDS011;10426;49.420;8.390;2022-09-09T10:41:25;2.72;;;1.08;;
20535;SDS011;10426;49.420;8.390;2022-09-09T10:46:57;2.65;;;1.30;;
20535;SDS011;10426;49.420;8.390;2022-09-09T10:49:29;3.53;;;1.42;;
20535;SDS011;10426;49.420;8.390;2022-09-09T10:52:00;3.10;;;1.00;;
20535;SDS011;10426;49.420;8.390;2022-09-09T10:54:33;4.55;;;0.90;;
20535;SDS011;10426;49.420;8.390;2022-09-09T10:57:05;3.85;;;1.00;;
20535;SDS011;10426;49.420;8.390;2022-09-09T10:59:36;4.47;;;1.10;;
20535;SDS011;10426;49.420;8.390;2022-09-09T11:02:05;1.92;;;1.02;;
20535;SDS011;10426;49.420;8.390;2022-09-09T11:04:38;3.90;;;1.00;;
20535;SDS011;10426;49.420;8.390;2022-09-09T11:07:07;1.75;;;1.00;;
20535;SDS011;10426;49.420;8.390;2022-09-09T11:09:36;3.45;;;1.10;;
20535;SDS011;10426;49.420;8.390;2022-09-09T11:12:06;3.95;;;0.93;;
20535;SDS011;10426;49.420;8.390;2022-09-09T11:14:39;3.13;;;1.10;;
20535;SDS011;10426;49.420;8.390;2022-09-09T11:17:10;3.28;;;1.05;;
20535;SDS011;10426;49.420;8.390;2022-09-09T11:19:38;2.53;;;0.88;;
20535;SDS011;10426;49.420;8.390;2022-09-09T11:22:07;2.33;;;1.02;;
20535;SDS011;10426;49.420;8.390;2022-09-09T11:24:35;1.88;;;1.08;;
20535;SDS011;10426;49.420;8.390;2022-09-09T11:27:07;2.00;;;0.90;;
20535;SDS011;10426;49.420;8.390;2022-09-09T11:29:45;3.20;;;1.20;;
20535;SDS011;10426;49.420;8.390;2022-09-09T11:32:21;3.47;;;0.93;;
20535;SDS011;10426;49.420;8.390;2022-09-09T11:34:52;1.98;;;0.90;;
20535;SDS011;10426;49.420;8.390;2022-09-09T11:37:25;2.55;;;0.80;;
20535;SDS011;10426;49.420;8.390;2022-09-09T11:40:08;1.77;;;0.80;;
20535;SDS011;10426;49.420;8.390;2022-09-09T11:42:36;1.58;;;0.80;;
20535;SDS011;10426;49.420;8.390;2022-09-09T11:45:10;2.55;;;1.02;;
20535;SDS011;10426;49.420;8.390;2022-09-09T11:47:38;1.38;;;0.93;;
20535;SDS011;10426;49.420;8.390;2022-09-09T11:50:08;3.57;;;1.10;;
20535;SDS011;10426;49.420;8.390;2022-09-09T11:52:36;3.40;;;0.90;;
20535;SDS011;10426;49.420;8.390;2022-09-09T11:55:08;2.83;;;0.95;;
20535;SDS011;10426;49.420;8.390;2022-09-09T11:57:36;1.77;;;0.90;;
20535;SDS011;10426;49.420;8.390;2022-09-09T12:00:03;2.33;;;0.90;;
20535;SDS011;10426;49.420;8.390;2022-09-09T12:02:31;1.83;;;0.90;;
20535;SDS011;10426;49.420;8.390;2022-09-09T12:04:59;2.55;;;1.17;;
20535;SDS011;10426;49.420;8.390;2022-09-09T12:07:30;2.42;;;0.90;;
20535;SDS011;10426;49.420;8.390;2022-09-09T12:09:58;3.60;;;1.00;;
20535;SDS011;10426;49.420;8.390;2022-09-09T12:12:28;1.63;;;0.90;;
20535;SDS011;10426;49.420;8.390;2022-09-09T12:17:42;2.40;;;0.90;;
20535;SDS011;10426;49.420;8.390;2022-09-09T12:20:11;3.10;;;1.05;;
20535;SDS011;10426;49.420;8.390;2022-09-09T12:22:42;1.60;;;0.65;;
20535;SDS011;10426;49.420;8.390;2022-09-09T12:25:14;0.83;;;0.60;;
20535;SDS011;10426;49.420;8.390;2022-09-09T12:27:43;1.63;;;0.65;;
20535;SDS011;10426;49.420;8.390;2022-09-09T12:30:12;2.25;;;0.80;;
20535;SDS011;10426;49.420;8.390;2022-09-09T12:32:41;2.33;;;0.77;;
20535;SDS011;10426;49.420;8.390;2022-09-09T12:35:10;1.35;;;0.80;;
20535;SDS011;10426;49.420;8.390;2022-09-09T12:37:38;2.43;;;1.07;;
20535;SDS011;10426;49.420;8.390;2022-09-09T12:40:06;2.17;;;0.60;;
20535;SDS011;10426;49.420;8.390;2022-09-09T12:42:44;3.83;;;0.80;;
20535;SDS011;10426;49.420;8.390;2022-09-09T12:45:15;1.27;;;0.73;;
20535;SDS011;10426;49.420;8.390;2022-09-09T12:47:44;2.80;;;1.13;;
20535;SDS011;10426;49.420;8.390;2022-09-09T12:50:15;3.78;;;1.15;;
20535;SDS011;10426;49.420;8.390;2022-09-09T12:52:42;3.13;;;0.97;;
20535;SDS011;10426;49.420;8.390;2022-09-09T12:55:14;2.35;;;0.95;;
20535;SDS011;10426;49.420;8.390;2022-09-09T12:57:42;1.00;;;0.60;;
20535;SDS011;10426;49.420;8.390;2022-09-09T13:00:12;1.02;;;0.73;;
20535;SDS011;10426;49.420;8.390;2022-09-09T13:02:49;2.63;;;1.00;;
20535;SDS011;10426;49.420;8.390;2022-09-09T13:05:17;2.00;;;0.90;;
20535;SDS011;10426;49.420;8.390;2022-09-09T13:07:44;1.10;;;1.00;;
20535;SDS011;10426;49.420;8.390;2022-09-09T13:10:12;1.63;;;0.90;;
20535;SDS011;10426;49.420;8.390;2022-09-09T13:12:39;1.48;;;1.00;;
20535;SDS011;10426;49.420;8.390;2022-09-09T13:15:10;2.95;;;1.00;;
20535;SDS011;10426;49.420;8.390;2022-09-09T13:17:38;3.63;;;1.10;;
20535;SDS011;10426;49.420;8.390;2022-09-09T13:20:14;2.17;;;0.95;;
20535;SDS011;10426;49.420;8.390;2022-09-09T13:22:42;1.33;;;0.85;;
20535;SDS011;10426;49.420;8.390;2022-09-09T13:25:17;2.20;;;0.80;;
20535;SDS011;10426;49.420;8.390;2022-09-09T13:27:51;1.50;;;0.90;;
20535;SDS011;10426;49.420;8.390;2022-09-09T13:30:20;2.53;;;0.90;;
20535;SDS011;10426;49.420;8.390;2022-09-09T13:32:48;1.40;;;1.00;;
20535;SDS011;10426;49.420;8.390;2022-09-09T13:35:27;1.70;;;0.80;;
20535;SDS011;10426;49.420;8.390;2022-09-09T13:37:54;2.30;;;1.00;;
20535;SDS011;10426;49.420;8.390;2022-09-09T13:40:22;1.58;;;1.30;;
20535;SDS011;10426;49.420;8.390;2022-09-09T13:42:51;0.82;;;0.70;;
20535;SDS011;10426;49.420;8.390;2022-09-09T13:45:18;0.90;;;0.85;;
20535;SDS011;10426;49.420;8.390;2022-09-09T13:47:46;1.20;;;0.50;;
20535;SDS011;10426;49.420;8.390;2022-09-09T13:50:18;2.13;;;0.50;;
20535;SDS011;10426;49.420;8.390;2022-09-09T13:52:47;1.13;;;0.47;;
20535;SDS011;10426;49.420;8.390;2022-09-09T13:55:14;1.05;;;0.52;;
20535;SDS011;10426;49.420;8.390;2022-09-09T13:57:49;1.55;;;0.75;;
20535;SDS011;10426;49.420;8.390;2022-09-09T14:00:16;2.13;;;0.60;;
20535;SDS011;10426;49.420;8.390;2022-09-09T14:02:43;1.52;;;0.57;;
20535;SDS011;10426;49.420;8.390;2022-09-09T14:05:10;2.47;;;0.60;;
20535;SDS011;10426;49.420;8.390;2022-09-09T14:07:37;1.13;;;0.60;;
20535;SDS011;10426;49.420;8.390;2022-09-09T14:10:07;1.25;;;0.63;;
20535;SDS011;10426;49.420;8.390;2022-09-09T14:12:33;0.60;;;0.50;;
20535;SDS011;10426;49.420;8.390;2022-09-09T14:15:01;0.60;;;0.43;;
20535;SDS011;10426;49.420;8.390;2022-09-09T14:17:28;0.60;;;0.60;;
20535;SDS011;10426;49.420;8.390;2022-09-09T14:19:56;1.63;;;0.80;;
20535;SDS011;10426;49.420;8.390;2022-09-09T14:22:23;0.88;;;0.68;;
20535;SDS011;10426;49.420;8.390;2022-09-09T14:24:50;0.60;;;0.50;;
20535;SDS011;10426;49.420;8.390;2022-09-09T14:27:18;2.22;;;0.60;;
20535;SDS011;10426;49.420;8.390;2022-09-09T14:29:45;2.00;;;0.50;;
20535;SDS011;10426;49.420;8.390;2022-09-09T14:32:12;1.88;;;0.55;;
20535;SDS011;10426;49.420;8.390;2022-09-09T14:34:38;0.90;;;0.55;;
20535;SDS011;10426;49.420;8.390;2022-09-09T14:37:05;1.30;;;0.75;;
20535;SDS011;10426;49.420;8.390;2022-09-09T14:39:32;1.67;;;0.68;;
20535;SDS011;10426;49.420;8.390;2022-09-09T14:41:59;0.88;;;0.50;;
20535;SDS011;10426;49.420;8.390;2022-09-09T14:44:27;0.80;;;0.60;;
20535;SDS011;10426;49.420;8.390;2022-09-09T14:46:54;0.77;;;0.60;;
20535;SDS011;10426;49.420;8.390;2022-09-09T14:49:21;0.90;;;0.57;;
20535;SDS011;10426;49.420;8.390;2022-09-09T14:51:47;1.60;;;0.80;;
20535;SDS011;10426;49.420;8.390;2022-09-09T14:54:14;1.00;;;0.55;;
20535;SDS011;10426;49.420;8.390;2022-09-09T14:56:41;1.77;;;0.83;;
20535;SDS011;10426;49.420;8.390;2022-09-09T14:59:08;2.47;;;0.70;;
20535;SDS011;10426;49.420;8.390;2022-09-09T15:01:36;1.25;;;0.80;;
20535;SDS011;10426;49.420;8.390;2022-09-09T15:04:03;2.65;;;0.80;;